Time;durP1;ratioP1;P1;durP2;ratioP2;P2;SDS_P1;SDS_P2;PMS_P1;PMS_P2;Temp;Humidity;BMP_temperature;BMP_pressure;BME280_temperature;BME280_humidity;BME280_pressure;Samples;Min_cycle;Max_cycle;Signal;HPM_P1;HPM_P2
2022/01/19 00:01:34;;;;;;;33.47;28.85;;;;;;;19.13;41.14;102933.44;5014848;28;20049;-77
2022/01/19 00:04:02;;;;;;;35.50;29.42;;;;;;;19.12;41.31;102937.94;5014645;28;20053;-77
2022/01/19 00:06:29;;;;;;;37.90;29.77;;;;;;;19.13;40.88;102945.03;5015159;28;20050;-77
2022/01/19 00:08:57;;;;;;;36.90;28.63;;;;;;;19.14;41.22;102946.75;5014951;28;20041;-77
2022/01/19 00:11:24;;;;;;;35.35;28.67;;;;;;;19.12;41.07;102959.41;5014840;28;20038;-77
2022/01/19 00:13:52;;;;;;;31.38;27.45;;;;;;;19.14;41.13;102975.44;5014880;28;20045;-77
2022/01/19 00:16:20;;;;;;;34.47;29.15;;;;;;;19.13;41.06;102965.66;5015036;28;20046;-77
2022/01/19 00:18:48;;;;;;;35.30;28.50;;;;;;;19.15;41.31;102972.66;5013330;28;20062;-76
2022/01/19 00:21:16;;;;;;;33.10;26.90;;;;;;;19.13;41.11;102977.25;5013783;28;20401;-77
2022/01/19 00:23:43;;;;;;;31.83;28.17;;;;;;;19.15;41.07;102971.78;5014456;28;20046;-77
2022/01/19 00:26:11;;;;;;;33.33;27.42;;;;;;;19.14;41.17;102970.06;5015049;28;20046;-76
2022/01/19 00:28:38;;;;;;;32.55;28.02;;;;;;;19.14;41.04;102970.94;5015297;28;20386;-77
2022/01/19 00:31:06;;;;;;;33.92;27.75;;;;;;;19.13;41.15;102963.81;5014496;28;20482;-77
2022/01/19 00:33:34;;;;;;;29.23;25.33;;;;;;;19.13;41.11;102960.28;5014149;28;20042;-77
2022/01/19 00:36:01;;;;;;;31.20;27.67;;;;;;;19.12;41.27;102967.47;5014712;28;20097;-77
2022/01/19 00:38:29;;;;;;;31.23;26.38;;;;;;;19.12;41.17;102959.41;5013742;28;20054;-78
2022/01/19 00:40:57;;;;;;;32.90;28.20;;;;;;;19.11;41.19;102957.66;5013449;28;20049;-78
2022/01/19 00:43:25;;;;;;;32.40;26.27;;;;;;;19.11;41.17;102946.91;5014437;28;20505;-78
2022/01/19 00:45:52;;;;;;;31.13;27.13;;;;;;;19.10;41.17;102955.91;5014774;28;20037;-77
2022/01/19 00:48:27;;;;;;;31.95;26.05;;;;;;;19.11;41.21;102949.59;5014947;28;20046;-77
2022/01/19 00:50:56;;;;;;;29.52;25.27;;;;;;;19.12;41.35;102939.72;5014094;28;20046;-78
2022/01/19 00:53:24;;;;;;;31.85;26.88;;;;;;;19.10;41.09;102939.81;5013197;28;20524;-78
2022/01/19 00:55:52;;;;;;;31.80;26.13;;;;;;;19.10;41.05;102947.88;5013315;28;20161;-77
2022/01/19 00:58:20;;;;;;;30.60;25.65;;;;;;;19.09;41.21;102943.44;5014029;28;20050;-77
2022/01/19 01:00:47;;;;;;;29.83;25.77;;;;;;;19.11;40.95;102935.31;5012956;28;20058;-77
2022/01/19 01:03:16;;;;;;;29.60;25.13;;;;;;;19.09;41.08;102934.53;5014348;28;20049;-77
2022/01/19 01:05:44;;;;;;;28.55;24.35;;;;;;;19.10;40.73;102930.88;5012823;28;20057;-77
2022/01/19 01:08:12;;;;;;;29.75;26.50;;;;;;;19.10;40.96;102918.34;5013849;28;20049;-77
2022/01/19 01:10:43;;;;;;;30.27;25.75;;;;;;;19.11;40.83;102920.06;5012758;28;20050;-77
2022/01/19 01:13:29;;;;;;;27.92;24.48;;;;;;;19.10;41.06;102923.69;5014584;28;20046;-76
2022/01/19 01:16:03;;;;;;;29.05;25.08;;;;;;;19.10;40.90;102929.06;5014463;28;20046;-76
2022/01/19 01:18:33;;;;;;;27.95;24.10;;;;;;;19.10;40.83;102942.50;5012602;28;20053;-76
2022/01/19 01:21:03;;;;;;;29.08;23.90;;;;;;;19.11;40.93;102943.38;5012289;28;20052;-76
2022/01/19 01:23:32;;;;;;;25.65;22.67;;;;;;;19.10;41.09;102950.56;5012601;28;20046;-77
2022/01/19 01:26:01;;;;;;;31.15;26.15;;;;;;;19.10;41.02;102955.06;5012911;28;20053;-77
2022/01/19 01:28:28;;;;;;;27.42;24.15;;;;;;;19.12;41.13;102966.56;5012588;28;20053;-76
2022/01/19 01:30:57;;;;;;;27.70;22.60;;;;;;;19.10;40.97;102958.59;5012508;28;20406;-77
2022/01/19 01:33:24;;;;;;;25.40;22.38;;;;;;;19.11;40.90;102956.78;5013799;28;20049;-77
2022/01/19 01:35:52;;;;;;;27.08;23.15;;;;;;;19.11;41.02;102951.41;5011990;28;20049;-77
2022/01/19 01:38:23;;;;;;;26.83;23.05;;;;;;;19.11;41.04;102946.03;5012443;28;20053;-77
2022/01/19 01:41:13;;;;;;;25.60;22.33;;;;;;;19.11;41.08;102946.91;5012783;28;20054;-77
2022/01/19 01:43:49;;;;;;;26.90;21.38;;;;;;;19.11;41.00;102933.47;5012250;28;20057;-77
2022/01/19 01:47:01;;;;;;;26.05;22.73;;;;;;;19.12;41.02;102926.28;5011727;28;20057;-77
2022/01/19 01:49:15;;;;;;;24.13;21.63;;;;;;;19.12;41.02;102923.63;5010505;28;20441;-77
2022/01/19 01:54:30;;;;;;;25.35;22.65;;;;;;;19.10;41.02;102912.97;5012453;28;20046;-77
2022/01/19 01:56:57;;;;;;;27.02;21.52;;;;;;;19.13;41.04;102917.31;5012838;28;20057;-77
2022/01/19 01:59:25;;;;;;;24.20;20.65;;;;;;;19.11;41.09;102906.63;5012319;28;20121;-77
2022/01/19 02:02:14;;;;;;;23.10;20.55;;;;;;;19.11;41.16;102903.09;5013742;28;20060;-77
2022/01/19 02:04:41;;;;;;;22.90;20.27;;;;;;;19.11;41.03;102903.09;5013647;28;20482;-77
2022/01/19 02:07:40;;;;;;;23.98;21.05;;;;;;;19.11;41.02;102895.03;5012027;28;20061;-77
2022/01/19 02:10:16;;;;;;;24.15;19.60;;;;;;;19.09;41.06;102900.50;5012033;28;20053;-77
2022/01/19 02:23:51;;;;;;;22.02;19.60;;;;;;;19.10;41.08;102880.75;5012033;28;20409;-77
2022/01/19 02:26:32;;;;;;;22.85;20.33;;;;;;;19.08;41.11;102877.28;5011715;28;20061;-77
2022/01/19 02:42:55;;;;;;;22.13;18.35;;;;;;;19.07;41.13;102855.88;4991268;28;20062;-77
2022/01/19 02:50:55;;;;;;;20.80;18.15;;;;;;;19.07;41.15;102837.09;4991073;28;20502;-77
2022/01/19 02:53:23;;;;;;;22.77;18.50;;;;;;;19.05;41.20;102839.88;4991196;28;20054;-77
2022/01/19 02:55:50;;;;;;;19.83;17.73;;;;;;;19.06;41.13;102843.41;4990919;28;20560;-78
2022/01/19 02:58:21;;;;;;;20.83;17.63;;;;;;;19.06;41.15;102846.09;4994091;28;20434;-78
2022/01/19 03:08:43;;;;;;;20.20;17.85;;;;;;;19.06;41.06;102835.34;4994292;28;20049;-77
2022/01/19 03:09:14;;;;;;;19.98;17.80;;;;;;;19.05;41.08;102830.94;4994699;28;20061;-77
2022/01/19 03:11:41;;;;;;;19.95;17.70;;;;;;;19.05;41.08;102828.25;4994358;28;20065;-77
2022/01/19 03:14:09;;;;;;;20.38;18.13;;;;;;;19.05;41.08;102841.69;5011677;28;20486;-77
2022/01/19 03:16:36;;;;;;;20.42;17.98;;;;;;;19.04;41.07;102835.44;5014649;28;20064;-77
2022/01/19 03:19:07;;;;;;;20.00;17.17;;;;;;;19.05;41.06;102830.94;4998952;28;20053;-77
2022/01/19 03:21:35;;;;;;;20.45;18.35;;;;;;;19.05;41.11;102834.50;5014951;28;20066;-77
2022/01/19 03:24:03;;;;;;;20.25;17.42;;;;;;;19.05;41.08;102828.25;5015287;28;20073;-77
2022/01/19 03:26:32;;;;;;;18.75;16.55;;;;;;;19.05;41.06;102831.81;5014436;28;20050;-78
2022/01/19 03:29:20;;;;;;;18.98;16.55;;;;;;;19.06;41.15;102843.41;5015356;28;20498;-78
2022/01/19 03:31:47;;;;;;;20.73;17.42;;;;;;;19.04;41.34;102832.75;5014234;28;20061;-78
2022/01/19 03:34:16;;;;;;;19.38;17.20;;;;;;;19.05;41.13;102831.81;5014926;28;20053;-78
2022/01/19 03:36:50;;;;;;;20.05;16.00;;;;;;;19.05;41.10;102841.69;5014553;28;20517;-78
2022/01/19 03:39:18;;;;;;;18.25;16.35;;;;;;;19.04;41.24;102832.75;5014289;28;20053;-78
2022/01/19 03:41:45;;;;;;;18.10;16.17;;;;;;;19.04;41.34;102832.75;5014363;28;20140;-78
2022/01/19 03:44:12;;;;;;;18.65;16.75;;;;;;;19.03;41.47;102834.56;5015367;28;20038;-77
2022/01/19 03:46:54;;;;;;;19.10;15.65;;;;;;;19.03;41.17;102836.38;5014180;28;20054;-76
2022/01/19 03:49:25;;;;;;;19.23;16.52;;;;;;;19.06;41.19;102830.00;5014350;28;20050;-77
2022/01/19 03:51:59;;;;;;;18.75;16.20;;;;;;;19.04;41.24;102827.41;5015437;28;20041;-77
2022/01/19 03:54:34;;;;;;;17.20;15.25;;;;;;;19.04;41.18;102830.09;5014421;28;20410;-77
2022/01/19 03:57:01;;;;;;;18.13;15.13;;;;;;;19.05;41.24;102828.25;5014422;28;20085;-76
2022/01/19 03:59:30;;;;;;;18.27;15.30;;;;;;;19.04;41.18;102824.72;5014606;28;20102;-76
2022/01/19 04:02:01;;;;;;;16.50;14.80;;;;;;;19.03;41.26;102826.50;5013976;28;20434;-76
2022/01/19 04:07:33;;;;;;;17.38;15.57;;;;;;;19.04;41.21;102830.09;5014021;28;20518;-76
2022/01/19 04:10:00;;;;;;;21.88;15.18;;;;;;;19.03;41.18;102828.31;5013078;28;20050;-76
2022/01/19 04:12:44;;;;;;;15.77;13.48;;;;;;;19.03;41.14;102831.00;4997756;28;20061;-76
2022/01/19 04:15:15;;;;;;;15.65;14.05;;;;;;;19.02;41.15;102819.41;5013720;28;20050;-76
2022/01/19 04:17:54;;;;;;;17.45;14.90;;;;;;;19.02;41.23;102819.41;4997676;28;20050;-77
2022/01/19 04:20:25;;;;;;;15.77;14.23;;;;;;;19.01;41.07;102806.06;5013818;28;20050;-77
2022/01/19 04:22:57;;;;;;;16.40;14.40;;;;;;;19.01;41.24;102812.31;5013665;28;20501;-77
2022/01/19 04:25:25;;;;;;;16.05;14.35;;;;;;;19.03;41.19;102809.53;5013822;28;20054;-77
2022/01/19 04:27:53;;;;;;;17.60;14.73;;;;;;;19.03;41.04;102812.22;5013338;28;20049;-77
2022/01/19 04:30:26;;;;;;;14.88;13.25;;;;;;;19.02;41.14;102815.84;5014436;28;20054;-77
2022/01/19 04:33:10;;;;;;;17.45;14.25;;;;;;;19.02;41.10;102818.53;5015210;28;20363;-77
2022/01/19 04:35:51;;;;;;;14.48;12.98;;;;;;;19.02;41.12;102813.16;4998223;28;20478;-77
2022/01/19 05:07:42;;;;;;;14.27;12.77;;;;;;;18.99;41.07;102779.28;5012707;28;20102;-77
2022/01/19 05:15:43;;;;;;;14.40;12.15;;;;;;;19.00;41.08;102777.50;5012984;28;20050;-78
2022/01/19 05:18:16;;;;;;;15.73;13.18;;;;;;;18.98;41.15;102768.66;5012648;28;20065;-78
2022/01/19 05:20:45;;;;;;;14.38;12.80;;;;;;;18.97;40.95;102773.16;5012766;28;20378;-78
2022/01/19 05:23:25;;;;;;;14.93;12.80;;;;;;;18.98;41.15;102769.50;5013103;28;20061;-78
2022/01/19 05:25:52;;;;;;;13.52;11.98;;;;;;;18.97;41.03;102766.94;5013367;28;20139;-78
2022/01/19 05:28:30;;;;;;;16.20;14.07;;;;;;;18.98;41.19;102768.66;5012357;28;20064;-78
2022/01/19 05:30:58;;;;;;;14.00;12.65;;;;;;;18.97;40.99;102778.53;5012435;28;20057;-78
2022/01/19 05:33:25;;;;;;;14.63;12.98;;;;;;;18.97;41.13;102772.28;5013775;28;20050;-77
2022/01/19 05:35:53;;;;;;;12.95;11.60;;;;;;;18.97;41.21;102772.28;5012438;28;20042;-78
2022/01/19 05:38:39;;;;;;;13.20;11.90;;;;;;;18.97;41.12;102769.63;5020765;28;20050;-77
2022/01/19 05:41:41;;;;;;;14.18;12.75;;;;;;;18.95;41.30;102767.00;5009903;28;20520;-77
2022/01/19 05:44:13;;;;;;;14.27;12.30;;;;;;;18.96;41.16;102781.31;5012420;28;20061;-77
2022/01/19 05:46:40;;;;;;;14.00;12.60;;;;;;;18.93;41.12;102781.47;5013369;28;20057;-77
2022/01/19 05:49:08;;;;;;;14.15;12.55;;;;;;;18.87;41.29;102776.41;5012645;28;20065;-77
2022/01/19 05:51:35;;;;;;;14.38;11.90;;;;;;;18.85;41.25;102776.50;5012344;28;20478;-77
2022/01/19 05:54:03;;;;;;;13.43;12.02;;;;;;;18.84;41.27;102771.19;5014023;28;20050;-76
2022/01/19 05:56:31;;;;;;;13.75;12.35;;;;;;;18.82;41.48;102765.91;5012159;28;20058;-77
2022/01/19 05:59:19;;;;;;;13.13;11.52;;;;;;;18.81;41.55;102771.38;5012995;28;20065;-76
2022/01/19 06:01:48;;;;;;;14.20;12.23;;;;;;;18.80;41.45;102767.84;5012382;28;20054;-76
2022/01/19 06:04:16;;;;;;;14.32;11.80;;;;;;;18.78;41.64;102765.22;5012102;28;20054;-77
2022/01/19 06:07:11;;;;;;;12.85;11.50;;;;;;;18.77;41.60;102768.00;4992356;28;20055;-77
2022/01/19 06:10:07;;;;;;;12.68;11.38;;;;;;;18.75;41.75;102759.13;4975575;28;20051;-77
2022/01/19 06:12:39;;;;;;;12.93;11.45;;;;;;;18.75;41.51;102759.13;4975128;28;20050;-77
2022/01/19 06:15:07;;;;;;;13.32;11.93;;;;;;;18.74;41.50;102760.97;4991689;28;20561;-77
2022/01/19 06:17:35;;;;;;;12.60;11.30;;;;;;;18.74;41.57;102758.28;4991151;28;20059;-78
2022/01/19 06:20:05;;;;;;;12.68;10.98;;;;;;;18.74;41.51;102760.97;4974985;28;20058;-77
2022/01/19 06:22:32;;;;;;;12.00;10.77;;;;;;;18.75;41.36;102765.38;4991561;28;20051;-77
2022/01/19 06:25:00;;;;;;;12.88;11.20;;;;;;;18.74;41.46;102757.41;4975397;28;20531;-77
2022/01/19 06:27:28;;;;;;;13.20;10.93;;;;;;;18.73;41.48;102761.06;4974954;28;20054;-76
2022/01/19 06:29:55;;;;;;;12.13;10.85;;;;;;;18.73;41.49;102758.38;4991427;28;20536;-76
2022/01/19 06:32:23;;;;;;;13.23;11.23;;;;;;;18.73;41.36;102753.00;4976566;28;20050;-77
2022/01/19 06:34:53;;;;;;;13.48;11.63;;;;;;;18.74;41.58;102757.41;4978854;28;20046;-77
2022/01/19 06:37:23;;;;;;;12.70;11.40;;;;;;;18.73;41.47;102751.19;4995059;28;20413;-77
2022/01/19 06:40:10;;;;;;;10.98;9.88;;;;;;;18.73;41.54;102753.88;5001956;28;20070;-77
2022/01/19 06:42:39;;;;;;;12.85;10.30;;;;;;;18.71;41.39;102755.75;4978605;28;20325;-77
2022/01/19 06:45:08;;;;;;;11.77;10.30;;;;;;;18.71;41.39;102750.38;5011768;28;20402;-77
2022/01/19 06:47:37;;;;;;;13.63;10.57;;;;;;;18.73;41.39;102750.31;5016214;28;20054;-77
2022/01/19 06:50:08;;;;;;;12.48;10.32;;;;;;;18.71;41.38;102745.00;5015131;28;20064;-76
2022/01/19 06:52:39;;;;;;;11.40;10.27;;;;;;;18.69;41.45;102749.56;5015779;28;20509;-77
2022/01/19 06:55:07;;;;;;;11.63;10.43;;;;;;;18.70;41.40;102750.47;5016370;28;20050;-77
2022/01/19 06:57:34;;;;;;;11.65;10.45;;;;;;;18.69;41.55;102757.63;5015377;28;20064;-77
2022/01/19 07:00:31;;;;;;;11.23;10.10;;;;;;;18.70;41.59;102755.84;4995179;28;20046;-78
2022/01/19 07:03:11;;;;;;;11.48;10.27;;;;;;;18.69;41.40;102748.72;4978609;28;20055;-78
2022/01/19 07:05:50;;;;;;;12.30;10.23;;;;;;;18.68;41.58;102745.16;4980001;28;20051;-78
2022/01/19 07:08:39;;;;;;;11.65;10.45;;;;;;;18.68;41.45;102749.66;4994375;28;20054;-79
2022/01/19 07:11:08;;;;;;;12.05;10.10;;;;;;;18.68;41.83;102745.16;4978136;28;20050;-78
2022/01/19 07:13:35;;;;;;;11.50;9.07;;;;;;;18.68;41.49;102746.97;4977624;28;20065;-77
2022/01/19 07:16:03;;;;;;;12.25;10.57;;;;;;;18.70;41.52;102747.78;4978211;28;20046;-77
2022/01/19 07:23:09;;;;;;;12.18;10.98;;;;;;;18.71;41.34;102744.16;4959022;28;20042;-79
2022/01/19 07:25:37;;;;;;;19.05;11.63;;;;;;;18.69;41.50;102752.25;4958719;28;20051;-79
2022/01/19 07:28:11;;;;;;;12.98;11.35;;;;;;;18.68;41.45;102744.31;4974884;28;20146;-78
2022/01/19 07:30:41;;;;;;;12.95;10.55;;;;;;;18.67;41.65;102747.91;4958913;28;20081;-79
2022/01/19 07:33:08;;;;;;;13.77;11.00;;;;;;;18.66;41.55;102746.19;4974613;28;20439;-80
2022/01/19 07:35:36;;;;;;;12.13;10.40;;;;;;;18.65;41.45;102753.38;4958839;28;20435;-81
2022/01/19 07:38:03;;;;;;;13.05;11.48;;;;;;;18.65;41.56;102750.69;4991069;28;20061;-80
2022/01/19 07:40:36;;;;;;;13.00;10.85;;;;;;;18.65;41.57;102750.69;4995417;28;20057;-80
2022/01/19 07:43:03;;;;;;;11.57;10.32;;;;;;;18.64;41.49;102751.63;4994140;28;20054;-80
2022/01/19 07:45:49;;;;;;;13.50;10.82;;;;;;;18.64;41.33;102746.28;5001939;28;20050;-79
2022/01/19 07:48:37;;;;;;;13.38;11.43;;;;;;;18.63;41.54;102747.19;5013557;28;20050;-79
2022/01/19 07:51:15;;;;;;;13.95;11.10;;;;;;;18.64;41.66;102748.09;4997034;28;20513;-79
2022/01/19 07:53:47;;;;;;;12.33;10.70;;;;;;;18.63;41.78;102747.19;5013514;28;20050;-79
2022/01/19 07:56:34;;;;;;;12.15;10.32;;;;;;;18.66;41.23;102759.59;5020118;28;20478;-79
2022/01/19 07:59:04;;;;;;;13.10;10.15;;;;;;;18.65;42.13;102744.47;5013785;28;20054;-79
2022/01/19 08:01:56;;;;;;;12.15;10.80;;;;;;;18.62;42.29;102749.97;5008755;28;20070;-79
2022/01/19 08:04:29;;;;;;;16.92;13.52;;;;;;;18.59;42.11;102751.00;5020130;28;20486;-79
2022/01/19 08:06:57;;;;;;;18.30;13.70;;;;;;;18.57;41.63;102758.28;5013180;28;20046;-79
2022/01/19 08:09:27;;;;;;;16.73;14.35;;;;;;;18.56;41.28;102753.00;4997361;28;20061;-79
2022/01/19 08:11:55;;;;;;;17.95;14.82;;;;;;;18.54;41.13;102748.56;5013144;28;20046;-78
2022/01/19 08:14:28;;;;;;;20.63;16.42;;;;;;;18.52;40.86;102739.75;4995696;28;20055;-78
2022/01/19 08:16:57;;;;;;;20.08;15.93;;;;;;;18.52;40.64;102752.28;4974383;28;20054;-78
2022/01/19 08:19:29;;;;;;;17.77;15.68;;;;;;;18.50;40.41;102738.94;4942832;28;20471;-78
2022/01/19 08:21:56;;;;;;;20.98;17.27;;;;;;;18.49;40.22;102736.34;4999460;28;20058;-81
2022/01/19 08:24:24;;;;;;;18.85;16.45;;;;;;;18.49;39.97;102733.66;5007775;28;20058;-77
2022/01/19 08:26:55;;;;;;;20.13;17.52;;;;;;;18.47;39.59;102724.81;4975642;28;20051;-77
2022/01/19 08:29:32;;;;;;;22.63;17.77;;;;;;;18.45;39.52;102732.09;4975171;28;20090;-77
2022/01/19 08:32:04;;;;;;;19.08;16.58;;;;;;;18.42;39.32;102722.38;4994003;28;20063;-78
2022/01/19 08:35:11;;;;;;;20.92;17.85;;;;;;;18.38;39.16;102731.53;4993926;28;20081;-78
2022/01/19 08:37:57;;;;;;;21.33;18.58;;;;;;;18.37;39.15;102732.47;5001264;28;20402;-77
2022/01/19 08:40:26;;;;;;;23.08;18.75;;;;;;;18.36;39.14;102736.13;4993881;28;20057;-77
2022/01/19 08:43:04;;;;;;;22.90;19.13;;;;;;;18.35;39.10;102737.06;4993779;28;20494;-78
2022/01/19 08:45:33;;;;;;;23.10;20.17;;;;;;;18.33;39.24;102730.91;4977623;28;20069;-77
2022/01/19 08:48:01;;;;;;;26.80;20.40;;;;;;;18.34;39.01;102742.50;4993686;28;20058;-77
2022/01/19 08:50:47;;;;;;;25.77;20.40;;;;;;;18.32;38.96;102745.28;4999299;28;20054;-77
2022/01/19 08:53:44;;;;;;;23.98;19.92;;;;;;;18.32;39.31;102744.41;4993063;28;20065;-78
2022/01/19 08:56:41;;;;;;;24.85;19.58;;;;;;;18.32;39.21;102736.38;4985545;28;20228;-77
2022/01/19 08:59:08;;;;;;;26.75;20.92;;;;;;;18.34;39.17;102742.50;4992456;28;20061;-77
2022/01/19 09:01:36;;;;;;;26.13;20.52;;;;;;;18.34;39.19;102748.72;4992770;28;20050;-77
2022/01/19 09:04:04;;;;;;;26.38;20.77;;;;;;;18.36;39.13;102738.81;4992325;28;20054;-78
2022/01/19 09:06:31;;;;;;;23.65;19.00;;;;;;;18.38;38.99;102730.66;4992163;28;20038;-78
2022/01/19 09:08:59;;;;;;;23.83;18.42;;;;;;;18.39;39.19;102729.72;4992159;28;20434;-78
2022/01/19 09:11:26;;;;;;;21.27;18.17;;;;;;;18.39;39.15;102737.75;4991633;28;20050;-78
2022/01/19 09:13:53;;;;;;;23.85;16.92;;;;;;;18.40;39.21;102735.00;4992199;28;20050;-78
2022/01/19 09:16:21;;;;;;;19.38;16.00;;;;;;;18.42;39.23;102746.50;4992168;28;20054;-78
2022/01/19 09:18:48;;;;;;;19.25;16.33;;;;;;;18.43;39.43;102745.59;4991828;28;20201;-77
2022/01/19 09:21:16;;;;;;;19.85;17.00;;;;;;;18.43;39.34;102739.31;4971893;28;20081;-77
2022/01/19 09:23:43;;;;;;;20.58;16.23;;;;;;;18.44;39.38;102739.28;4972679;28;20550;-77
2022/01/19 09:26:11;;;;;;;20.30;17.02;;;;;;;18.44;39.30;102735.72;4972620;28;20094;-77
2022/01/19 09:28:39;;;;;;;20.45;15.68;;;;;;;18.43;39.31;102740.22;4972414;28;20050;-77
2022/01/19 09:31:26;;;;;;;17.23;15.27;;;;;;;18.43;39.38;102728.59;4972674;28;20055;-77
2022/01/19 09:34:08;;;;;;;18.08;14.60;;;;;;;18.45;39.39;102726.72;4973198;28;20051;-77
2022/01/19 09:36:46;;;;;;;17.25;13.70;;;;;;;18.45;39.32;102727.59;4974614;28;20047;-80
2022/01/19 09:39:23;;;;;;;18.00;14.35;;;;;;;18.46;39.53;102726.63;4974317;28;20436;-77
2022/01/19 09:41:53;;;;;;;16.20;12.88;;;;;;;18.46;39.49;102728.44;4973435;28;20050;-76
2022/01/19 09:44:25;;;;;;;18.48;14.02;;;;;;;18.46;39.38;102733.81;4974267;28;20050;-77
2022/01/19 09:46:52;;;;;;;17.40;14.48;;;;;;;18.45;39.39;102726.72;4974171;28;20506;-76
2022/01/19 09:49:20;;;;;;;18.00;15.07;;;;;;;18.45;39.50;102719.53;4974363;28;20499;-77
2022/01/19 09:51:51;;;;;;;15.50;12.50;;;;;;;18.45;39.47;102716.00;4974681;28;20050;-77
2022/01/19 09:54:27;;;;;;;15.38;12.68;;;;;;;18.47;39.61;102708.72;4974241;28;20411;-76
2022/01/19 09:56:55;;;;;;;15.15;13.00;;;;;;;18.47;39.59;102704.25;4974417;28;20476;-77
2022/01/19 09:59:23;;;;;;;14.88;12.15;;;;;;;18.47;39.48;102701.56;4974015;28;20051;-77
2022/01/19 10:02:09;;;;;;;16.17;12.68;;;;;;;18.47;39.60;102701.56;4974284;28;20042;-77
2022/01/19 10:04:42;;;;;;;13.50;11.55;;;;;;;18.47;39.66;102701.56;4974133;28;20054;-77
2022/01/19 10:07:22;;;;;;;13.88;12.13;;;;;;;18.46;39.70;102686.41;4976060;28;20042;-77
2022/01/19 10:10:01;;;;;;;15.20;11.73;;;;;;;18.48;39.71;102691.72;4978201;28;20050;-77
2022/01/19 10:18:20;;;;;;;12.35;10.18;;;;;;;18.48;39.89;102681.84;4978028;28;20043;-76
2022/01/19 10:21:04;;;;;;;12.93;10.70;;;;;;;18.48;39.90;102679.16;4978780;28;20054;-76
2022/01/19 10:23:33;;;;;;;14.18;10.95;;;;;;;18.48;39.89;102672.94;5015757;28;20049;-75
2022/01/19 10:26:01;;;;;;;13.43;11.23;;;;;;;18.47;39.91;102668.50;5016934;28;20061;-76
2022/01/19 10:28:28;;;;;;;12.63;11.30;;;;;;;18.47;39.87;102669.38;5016827;28;20049;-76
2022/01/19 10:31:00;;;;;;;13.13;10.55;;;;;;;18.46;39.81;102658.72;5017017;28;20057;-76
2022/01/19 10:33:30;;;;;;;12.00;10.07;;;;;;;18.47;39.91;102658.66;5015534;28;20409;-77
2022/01/19 10:36:06;;;;;;;14.57;11.13;;;;;;;18.48;40.04;102655.03;5015266;28;20050;-76
2022/01/19 10:38:36;;;;;;;11.13;10.02;;;;;;;18.47;39.90;102647.94;5016887;28;20053;-76
2022/01/19 10:41:09;;;;;;;11.85;10.15;;;;;;;18.48;39.80;102641.63;5015314;28;20057;-77
2022/01/19 10:43:43;;;;;;;11.88;9.73;;;;;;;18.49;39.90;102639.78;5016565;28;20405;-76
2022/01/19 10:46:16;;;;;;;11.45;10.27;;;;;;;18.48;39.88;102630.03;5016683;28;20046;-76
2022/01/19 10:48:45;;;;;;;12.20;10.70;;;;;;;18.47;40.25;102629.16;5016379;28;20413;-76
2022/01/19 10:51:19;;;;;;;11.52;10.25;;;;;;;18.48;40.33;102624.66;5016217;28;20049;-76
2022/01/19 10:54:04;;;;;;;;;;;;;;;18.49;40.18;102623.69;5017499;28;20049;-76
2022/01/19 10:56:32;;;;;;;12.82;11.25;;;;;;;18.49;40.10;102623.69;5016352;28;19921;-76
2022/01/19 10:59:03;;;;;;;12.07;10.15;;;;;;;18.48;39.96;102614.78;5016453;28;20049;-76
2022/01/19 11:01:40;;;;;;;11.35;10.15;;;;;;;18.47;39.95;102610.38;5015382;28;20053;-77
2022/01/19 11:04:29;;;;;;;12.27;11.00;;;;;;;18.47;39.84;102610.38;5014899;28;20077;-77
2022/01/19 11:07:03;;;;;;;14.57;11.05;;;;;;;18.48;40.01;102605.88;5016785;28;20485;-77
2022/01/19 11:09:34;;;;;;;12.52;10.52;;;;;;;18.49;40.09;102604.94;5015570;28;20065;-76
2022/01/19 11:12:11;;;;;;;12.20;10.85;;;;;;;18.48;40.18;102598.69;5015430;28;20053;-76
2022/01/19 11:14:40;;;;;;;12.88;10.65;;;;;;;18.48;40.30;102590.66;5016653;28;20056;-76
2022/01/19 11:17:27;;;;;;;11.63;10.23;;;;;;;18.48;40.30;102593.34;5014452;28;20069;-77
2022/01/19 11:19:55;;;;;;;11.48;9.80;;;;;;;18.48;40.11;102589.78;5015545;28;20057;-77
2022/01/19 11:22:31;;;;;;;13.00;10.98;;;;;;;18.48;40.13;102579.94;5013935;28;20057;-77
2022/01/19 11:25:27;;;;;;;12.30;11.00;;;;;;;18.48;39.98;102571.88;5016009;28;20065;-78
2022/01/19 11:28:44;;;;;;;12.15;10.68;;;;;;;18.49;39.95;102572.75;5014727;28;20045;-78
2022/01/19 11:31:23;;;;;;;11.95;10.60;;;;;;;18.49;40.09;102570.06;5015387;28;20053;-78
2022/01/19 11:33:57;;;;;;;11.60;10.38;;;;;;;18.49;40.29;102559.34;5014599;28;20398;-78
2022/01/19 11:36:31;;;;;;;11.60;10.40;;;;;;;18.49;39.97;102551.28;5015751;28;20505;-78
2022/01/19 11:39:11;;;;;;;13.23;11.10;;;;;;;18.48;40.05;102549.56;5015728;28;20053;-78
2022/01/19 11:41:41;;;;;;;13.57;11.93;;;;;;;18.48;39.95;102546.88;5015613;28;20053;-78
2022/01/19 11:44:14;;;;;;;12.25;11.00;;;;;;;18.48;40.08;102534.34;5015789;28;20045;-77
2022/01/19 11:46:48;;;;;;;;;;;;;;;18.48;40.03;102534.34;5015921;28;20046;-77
2022/01/19 11:49:35;;;;;;;;;;;;;;;18.47;40.06;102527.25;5015904;28;19944;-77
2022/01/19 11:52:04;;;;;;;12.73;11.43;;;;;;;18.48;39.98;102515.56;5013880;28;20266;-77
2022/01/19 11:54:33;;;;;;;13.55;11.85;;;;;;;18.48;40.00;102514.69;5015390;28;20053;-77
2022/01/19 11:57:04;;;;;;;13.73;11.82;;;;;;;18.48;40.00;102509.34;5014440;28;20405;-77
2022/01/19 11:59:34;;;;;;;11.95;10.75;;;;;;;18.48;39.93;102509.34;5015060;28;20482;-77
2022/01/19 12:02:28;;;;;;;11.80;10.55;;;;;;;18.48;39.99;102491.44;5013444;28;20061;-77
2022/01/19 12:05:45;;;;;;;12.40;10.55;;;;;;;18.49;40.00;102494.97;5015113;28;20045;-79
2022/01/19 12:08:18;;;;;;;10.43;9.25;;;;;;;18.49;40.20;102498.50;5015189;28;20042;-78
2022/01/19 12:10:49;;;;;;;11.90;10.55;;;;;;;18.48;40.00;102488.75;5014201;28;20054;-78
2022/01/19 12:16:00;;;;;;;;;;;;;;;18.50;40.09;102485.97;5014110;28;20054;-78
2022/01/19 12:18:53;;;;;;;10.95;9.85;;;;;;;18.50;40.09;102484.16;5014311;28;20279;-79
2022/01/19 12:21:21;;;;;;;;;;;;;;;18.49;40.03;102476.19;5014945;28;20058;-78
2022/01/19 12:23:49;;;;;;;12.55;11.25;;;;;;;18.48;40.14;102466.44;5014329;28;20304;-77
2022/01/19 12:26:17;;;;;;;13.45;10.75;;;;;;;18.48;39.94;102458.38;5014647;28;20382;-77
2022/01/19 12:28:48;;;;;;;12.27;10.98;;;;;;;18.47;39.83;102456.63;5013263;28;20053;-77
2022/01/19 12:31:27;;;;;;;13.30;10.98;;;;;;;18.49;40.06;102455.59;5013937;28;20050;-77
2022/01/19 12:34:04;;;;;;;14.40;10.13;;;;;;;18.48;40.03;102448.53;5014468;28;20046;-78
2022/01/19 12:36:55;;;;;;;11.27;10.18;;;;;;;18.49;40.04;102444.88;5014425;28;20387;-77
2022/01/19 12:39:28;;;;;;;11.40;10.20;;;;;;;18.49;40.06;102441.34;5014315;28;20057;-77
2022/01/19 12:42:06;;;;;;;11.60;10.40;;;;;;;18.49;40.01;102425.25;5015022;28;20109;-78
2022/01/19 12:44:53;;;;;;;12.63;11.00;;;;;;;18.49;39.95;102417.19;5014505;28;20046;-78
2022/01/19 12:47:26;;;;;;;12.63;10.88;;;;;;;18.49;40.03;102411.84;5014111;28;20053;-77
2022/01/19 12:50:01;;;;;;;11.57;10.05;;;;;;;18.49;39.90;102403.78;5013500;28;20053;-78
2022/01/19 12:52:30;;;;;;;10.95;9.82;;;;;;;18.48;39.96;102397.56;5014126;28;20406;-77
2022/01/19 12:55:14;;;;;;;11.07;9.98;;;;;;;18.47;39.86;102386.91;5013925;28;20054;-77
2022/01/19 12:57:41;;;;;;;;;;;;;;;18.47;40.06;102386.91;5014566;28;20053;-77
2022/01/19 13:00:12;;;;;;;11.35;10.15;;;;;;;18.46;39.90;102375.31;5012939;28;19921;-77
2022/01/19 13:02:40;;;;;;;11.15;10.00;;;;;;;18.46;40.09;102375.31;5014070;28;20050;-77
2022/01/19 13:05:14;;;;;;;11.25;10.07;;;;;;;18.46;39.95;102359.22;5012850;28;20042;-77
2022/01/19 13:08:00;;;;;;;10.90;9.77;;;;;;;18.48;39.92;102356.47;5012513;28;20058;-77
2022/01/19 13:10:41;;;;;;;12.65;9.93;;;;;;;18.48;39.90;102359.16;5012835;28;20048;-77